Terminal Aerodrome Forecast
Issued by NWS

Home | Current Version | Previous Version | Text Only | Print | Product List | Glossary On
Versions: 1 2 3 4 5 6 7 8 9 10 11 12 13 14 15 16 17
000
FTUS46 KSTO 191100 RRA
TAFMHR
TAF
KMHR 191147Z 1912/2012 13008KT P6SM BKN050
     FM191600 15014KT 4SM -SHRA BR OVC025
     FM200200 15005KT 5SM BR VCSH SCT025 OVC035
     FM200900 13003KT 5SM BR OVC025=

USA.gov is the U.S. government's official web portal to all federal, state and local government web resources and services.